sensor_id;sensor_type;location;lat;lon;timestamp;temperature;humidity
52439;DHT22;73188;52.948;6.012;2024-03-08T00:05:09;9.00;99.90
52439;DHT22;73188;52.948;6.012;2024-03-08T00:15:35;9.00;99.90
52439;DHT22;73188;52.948;6.012;2024-03-08T00:26:01;8.90;99.90
52439;DHT22;73188;52.948;6.012;2024-03-08T00:36:29;8.80;99.90
52439;DHT22;73188;52.948;6.012;2024-03-08T00:46:55;8.80;99.90
52439;DHT22;73188;52.948;6.012;2024-03-08T00:57:22;8.70;99.90
52439;DHT22;73188;52.948;6.012;2024-03-08T01:07:47;8.60;99.90
52439;DHT22;73188;52.948;6.012;2024-03-08T01:18:13;8.60;99.90
52439;DHT22;73188;52.948;6.012;2024-03-08T01:28:39;8.60;99.90
52439;DHT22;73188;52.948;6.012;2024-03-08T01:39:05;8.60;99.90
52439;DHT22;73188;52.948;6.012;2024-03-08T01:49:33;8.60;99.90
52439;DHT22;73188;52.948;6.012;2024-03-08T02:00:00;8.50;99.90
52439;DHT22;73188;52.948;6.012;2024-03-08T02:10:29;8.40;99.90
52439;DHT22;73188;52.948;6.012;2024-03-08T02:20:56;8.50;99.90
52439;DHT22;73188;52.948;6.012;2024-03-08T02:31:23;8.40;99.90
52439;DHT22;73188;52.948;6.012;2024-03-08T02:41:49;8.40;99.90
52439;DHT22;73188;52.948;6.012;2024-03-08T02:52:15;8.40;99.90
52439;DHT22;73188;52.948;6.012;2024-03-08T03:02:41;8.40;99.90
52439;DHT22;73188;52.948;6.012;2024-03-08T03:13:08;8.40;99.90
52439;DHT22;73188;52.948;6.012;2024-03-08T03:23:34;8.40;99.90
52439;DHT22;73188;52.948;6.012;2024-03-08T03:34:00;8.40;99.90
52439;DHT22;73188;52.948;6.012;2024-03-08T03:44:29;8.30;99.90
52439;DHT22;73188;52.948;6.012;2024-03-08T03:54:55;8.30;99.90
52439;DHT22;73188;52.948;6.012;2024-03-08T04:05:22;8.30;99.90
52439;DHT22;73188;52.948;6.012;2024-03-08T04:15:48;8.20;99.90
52439;DHT22;73188;52.948;6.012;2024-03-08T04:26:14;8.20;99.90
52439;DHT22;73188;52.948;6.012;2024-03-08T04:36:39;8.10;99.90
52439;DHT22;73188;52.948;6.012;2024-03-08T04:47:05;8.00;99.90
52439;DHT22;73188;52.948;6.012;2024-03-08T04:57:31;8.00;99.90
52439;DHT22;73188;52.948;6.012;2024-03-08T05:07:57;7.90;99.90
52439;DHT22;73188;52.948;6.012;2024-03-08T05:18:23;7.80;99.90
52439;DHT22;73188;52.948;6.012;2024-03-08T05:28:49;7.70;99.90
52439;DHT22;73188;52.948;6.012;2024-03-08T05:39:15;7.70;99.90
52439;DHT22;73188;52.948;6.012;2024-03-08T05:49:42;7.70;99.90
52439;DHT22;73188;52.948;6.012;2024-03-08T06:00:11;7.70;99.90
52439;DHT22;73188;52.948;6.012;2024-03-08T06:10:37;7.60;99.90
52439;DHT22;73188;52.948;6.012;2024-03-08T06:21:04;7.70;99.90
52439;DHT22;73188;52.948;6.012;2024-03-08T06:31:32;7.60;99.90
52439;DHT22;73188;52.948;6.012;2024-03-08T06:41:58;7.60;99.90
52439;DHT22;73188;52.948;6.012;2024-03-08T06:52:24;7.70;99.90
52439;DHT22;73188;52.948;6.012;2024-03-08T07:02:50;7.90;99.90
52439;DHT22;73188;52.948;6.012;2024-03-08T07:13:15;8.10;99.90
52439;DHT22;73188;52.948;6.012;2024-03-08T07:23:42;8.20;99.90
52439;DHT22;73188;52.948;6.012;2024-03-08T07:34:11;8.50;99.90
52439;DHT22;73188;52.948;6.012;2024-03-08T07:44:38;8.70;99.90
52439;DHT22;73188;52.948;6.012;2024-03-08T07:55:04;8.90;99.90
52439;DHT22;73188;52.948;6.012;2024-03-08T08:05:31;9.20;99.90
52439;DHT22;73188;52.948;6.012;2024-03-08T08:16:00;10.20;99.90
52439;DHT22;73188;52.948;6.012;2024-03-08T08:26:26;12.50;99.90
52439;DHT22;73188;52.948;6.012;2024-03-08T08:36:53;14.30;99.90
52439;DHT22;73188;52.948;6.012;2024-03-08T08:47:19;14.80;99.90
52439;DHT22;73188;52.948;6.012;2024-03-08T08:57:45;15.30;99.90
52439;DHT22;73188;52.948;6.012;2024-03-08T09:08:11;16.60;99.90
52439;DHT22;73188;52.948;6.012;2024-03-08T09:18:38;17.60;99.90
52439;DHT22;73188;52.948;6.012;2024-03-08T09:29:04;16.80;99.90
52439;DHT22;73188;52.948;6.012;2024-03-08T09:39:32;16.80;99.90
52439;DHT22;73188;52.948;6.012;2024-03-08T09:49:58;17.20;99.90
52439;DHT22;73188;52.948;6.012;2024-03-08T10:00:25;17.50;99.90
52439;DHT22;73188;52.948;6.012;2024-03-08T10:10:51;19.00;99.90
52439;DHT22;73188;52.948;6.012;2024-03-08T10:21:17;19.80;99.90
52439;DHT22;73188;52.948;6.012;2024-03-08T10:31:44;19.90;99.90
52439;DHT22;73188;52.948;6.012;2024-03-08T10:42:14;20.80;99.90
52439;DHT22;73188;52.948;6.012;2024-03-08T10:52:44;19.10;99.90
52439;DHT22;73188;52.948;6.012;2024-03-08T11:14:05;20.60;99.90
52439;DHT22;73188;52.948;6.012;2024-03-08T11:24:38;21.40;99.90
52439;DHT22;73188;52.948;6.012;2024-03-08T11:35:08;21.30;99.90
52439;DHT22;73188;52.948;6.012;2024-03-08T11:45:44;21.40;99.90
52439;DHT22;73188;52.948;6.012;2024-03-08T11:56:11;21.20;99.90
52439;DHT22;73188;52.948;6.012;2024-03-08T12:06:39;21.00;99.90
52439;DHT22;73188;52.948;6.012;2024-03-08T12:17:06;21.00;99.90
52439;DHT22;73188;52.948;6.012;2024-03-08T12:27:32;21.10;99.90
52439;DHT22;73188;52.948;6.012;2024-03-08T12:37:59;20.90;99.90
52439;DHT22;73188;52.948;6.012;2024-03-08T12:48:25;22.50;99.90
52439;DHT22;73188;52.948;6.012;2024-03-08T12:58:51;21.30;99.90
52439;DHT22;73188;52.948;6.012;2024-03-08T13:09:18;20.60;99.90
52439;DHT22;73188;52.948;6.012;2024-03-08T13:19:48;21.60;99.90
52439;DHT22;73188;52.948;6.012;2024-03-08T13:30:13;20.90;99.90
52439;DHT22;73188;52.948;6.012;2024-03-08T13:40:43;20.50;99.90
52439;DHT22;73188;52.948;6.012;2024-03-08T13:51:09;20.60;99.90
52439;DHT22;73188;52.948;6.012;2024-03-08T14:01:37;20.50;99.90
52439;DHT22;73188;52.948;6.012;2024-03-08T14:12:04;19.50;99.90
52439;DHT22;73188;52.948;6.012;2024-03-08T14:22:32;19.60;99.90
52439;DHT22;73188;52.948;6.012;2024-03-08T14:32:58;18.80;99.90
52439;DHT22;73188;52.948;6.012;2024-03-08T14:43:27;19.10;99.90
52439;DHT22;73188;52.948;6.012;2024-03-08T14:53:53;17.50;99.90
52439;DHT22;73188;52.948;6.012;2024-03-08T15:04:20;16.60;99.90
52439;DHT22;73188;52.948;6.012;2024-03-08T15:14:45;16.00;99.90
52439;DHT22;73188;52.948;6.012;2024-03-08T15:25:11;15.90;99.90
52439;DHT22;73188;52.948;6.012;2024-03-08T15:35:42;15.70;99.90
52439;DHT22;73188;52.948;6.012;2024-03-08T15:46:12;15.50;99.90
52439;DHT22;73188;52.948;6.012;2024-03-08T15:56:38;15.20;99.90
52439;DHT22;73188;52.948;6.012;2024-03-08T16:07:04;15.00;99.90
52439;DHT22;73188;52.948;6.012;2024-03-08T16:17:31;14.80;99.90
52439;DHT22;73188;52.948;6.012;2024-03-08T16:27:57;14.50;99.90
52439;DHT22;73188;52.948;6.012;2024-03-08T16:38:23;14.40;99.90
52439;DHT22;73188;52.948;6.012;2024-03-08T16:48:49;14.20;99.90
52439;DHT22;73188;52.948;6.012;2024-03-08T16:59:15;14.00;99.90
52439;DHT22;73188;52.948;6.012;2024-03-08T17:09:41;13.70;99.90
52439;DHT22;73188;52.948;6.012;2024-03-08T17:20:08;13.60;99.90
52439;DHT22;73188;52.948;6.012;2024-03-08T17:30:41;13.40;99.90
52439;DHT22;73188;52.948;6.012;2024-03-08T17:41:10;13.20;99.90
52439;DHT22;73188;52.948;6.012;2024-03-08T17:51:38;13.00;99.90
52439;DHT22;73188;52.948;6.012;2024-03-08T18:02:04;12.80;99.90
52439;DHT22;73188;52.948;6.012;2024-03-08T18:12:31;12.60;99.90
52439;DHT22;73188;52.948;6.012;2024-03-08T18:22:59;12.50;99.90
52439;DHT22;73188;52.948;6.012;2024-03-08T18:33:27;12.40;99.90
52439;DHT22;73188;52.948;6.012;2024-03-08T18:43:56;12.10;99.90
52439;DHT22;73188;52.948;6.012;2024-03-08T18:54:23;12.00;99.90
52439;DHT22;73188;52.948;6.012;2024-03-08T19:04:53;12.00;99.90
52439;DHT22;73188;52.948;6.012;2024-03-08T19:15:22;11.80;99.90
52439;DHT22;73188;52.948;6.012;2024-03-08T19:25:48;11.70;99.90
52439;DHT22;73188;52.948;6.012;2024-03-08T19:36:15;11.50;99.90
52439;DHT22;73188;52.948;6.012;2024-03-08T19:46:43;11.40;99.90
52439;DHT22;73188;52.948;6.012;2024-03-08T19:57:09;11.40;99.90
52439;DHT22;73188;52.948;6.012;2024-03-08T20:07:36;11.30;99.90
52439;DHT22;73188;52.948;6.012;2024-03-08T20:18:01;11.20;99.90
52439;DHT22;73188;52.948;6.012;2024-03-08T20:28:27;11.10;99.90
52439;DHT22;73188;52.948;6.012;2024-03-08T20:38:57;11.10;99.90
52439;DHT22;73188;52.948;6.012;2024-03-08T20:49:24;10.90;99.90
52439;DHT22;73188;52.948;6.012;2024-03-08T20:59:50;10.90;99.90
52439;DHT22;73188;52.948;6.012;2024-03-08T21:10:16;10.80;99.90
52439;DHT22;73188;52.948;6.012;2024-03-08T21:20:42;10.80;99.90
52439;DHT22;73188;52.948;6.012;2024-03-08T21:31:08;10.80;99.90
52439;DHT22;73188;52.948;6.012;2024-03-08T21:41:34;10.80;99.90
52439;DHT22;73188;52.948;6.012;2024-03-08T21:51:59;10.70;99.90
52439;DHT22;73188;52.948;6.012;2024-03-08T22:02:29;10.60;99.90
52439;DHT22;73188;52.948;6.012;2024-03-08T22:12:56;10.50;99.90
52439;DHT22;73188;52.948;6.012;2024-03-08T22:23:21;10.60;99.90
52439;DHT22;73188;52.948;6.012;2024-03-08T22:33:49;10.50;99.90
52439;DHT22;73188;52.948;6.012;2024-03-08T22:44:16;10.40;99.90
52439;DHT22;73188;52.948;6.012;2024-03-08T22:54:42;10.40;99.90
52439;DHT22;73188;52.948;6.012;2024-03-08T23:05:08;10.40;99.90
52439;DHT22;73188;52.948;6.012;2024-03-08T23:15:34;10.30;99.90
52439;DHT22;73188;52.948;6.012;2024-03-08T23:26:04;10.20;99.90
52439;DHT22;73188;52.948;6.012;2024-03-08T23:36:30;10.10;99.90
52439;DHT22;73188;52.948;6.012;2024-03-08T23:46:56;10.10;99.90
52439;DHT22;73188;52.948;6.012;2024-03-08T23:57:22;10.00;99.90
